| time (UTC) | temp F | wind direction | speed knots | gust knots | rain 1hr in | rain 24hr in | rain mn in | humidity % | barometer mb |
| 20260503204551 | 64 | 192 | 7.8 | 21.7 | 0.00 | 0.00 | 0.00 | 45 | 1003.9 |
| 20260503203112 | 63 | 248 | 6.1 | 15.6 | 0.00 | 0.00 | 0.00 | 47 | 1004.3 |
| 20260503201554 | 63 | 263 | 5.2 | 19.1 | 0.00 | 0.00 | 0.00 | 47 | 1004.4 |
| 20260503200053 | 63 | 264 | 6.1 | 17.4 | 0.00 | 0.00 | 0.00 | 47 | 1004.7 |
| 20260503194552 | 63 | 254 | 7.8 | 19.1 | 0.00 | 0.00 | 0.00 | 45 | 1004.9 |
| 20260503193055 | 63 | 295 | 7.0 | 25.2 | 0.00 | 0.00 | 0.00 | 46 | 1005.0 |
| 20260503191553 | 63 | 240 | 7.8 | 17.4 | 0.00 | 0.00 | 0.00 | 44 | 1004.8 |
| 20260503190105 | 63 | 266 | 7.8 | 20.9 | 0.00 | 0.00 | 0.00 | 47 | 1004.9 |
| 20260503184554 | 62 | 231 | 6.1 | 20.9 | 0.00 | 0.00 | 0.00 | 47 | 1005.0 |
| 20260503183049 | 62 | 258 | 7.0 | 23.5 | 0.00 | 0.00 | 0.00 | 48 | 1005.5 |
| 20260503181558 | 61 | 195 | 7.0 | 16.5 | 0.00 | 0.00 | 0.00 | 51 | 1005.9 |
| 20260503180056 | 60 | 143 | 9.6 | 21.7 | 0.00 | 0.00 | 0.00 | 50 | 1006.1 |
| 20260503174550 | 59 | 193 | 8.7 | 16.5 | 0.00 | 0.00 | 0.00 | 53 | 1006.4 |
| 20260503173052 | 58 | 153 | 7.8 | 21.7 | 0.00 | 0.00 | 0.00 | 55 | 1006.7 |
| 20260503171549 | 58 | 232 | 4.3 | 16.5 | 0.00 | 0.00 | 0.00 | 52 | 1006.8 |
| 20260503100106 | 47 | 293 | 3.5 | 9.6 | 0.00 | 0.00 | 0.00 | 55 | 1009.9 |
| 20260503081557 | 47 | 181 | 3.5 | 9.6 | 0.00 | 0.00 | 0.00 | 55 | 1010.5 |
| 20260503071553 | 47 | 283 | 1.7 | 5.2 | 0.00 | 0.00 | 0.00 | 54 | 1010.9 |
| 20260503060116 | 47 | 264 | 2.6 | 5.2 | 0.00 | 0.00 | 0.00 | 54 | 1011.5 |
| 20260503054602 | 47 | 263 | 1.7 | 6.1 | 0.00 | 0.00 | 0.00 | 53 | 1011.7 |
| 20260503053049 | 47 | 252 | 1.7 | 10.4 | 0.00 | 0.00 | 0.00 | 52 | 1011.9 |
| 20260503051551 | 47 | 260 | 1.7 | 5.2 | 0.00 | 0.00 | 0.00 | 52 | 1012.0 |
| 20260503050055 | 48 | 225 | 2.6 | 7.0 | 0.00 | 0.00 | 0.00 | 52 | 1012.0 |
| 20260503044553 | 47 | 234 | 1.7 | 5.2 | 0.00 | 0.00 | 0.00 | 52 | 1012.1 |
| 20260503043051 | 47 | 262 | 0.0 | 6.1 | 0.00 | 0.00 | 0.00 | 52 | 1012.2 |
| 20260503041556 | 47 | 266 | 0.9 | 5.2 | 0.00 | 0.00 | 0.00 | 52 | 1012.3 |
| 20260503040053 | 47 | 243 | 0.0 | 6.1 | 0.00 | 0.00 | 0.00 | 52 | 1012.3 |
| 20260503034600 | 47 | 279 | 0.9 | 4.3 | 0.00 | 0.00 | 0.00 | 54 | 1012.4 |
| 20260503033104 | 47 | 0 | 0.9 | 4.3 | 0.00 | 0.00 | 0.00 | 54 | 1012.5 |
| 20260503031553 | 46 | 0 | 0.0 | 3.5 | 0.00 | 0.00 | 0.00 | 57 | 1012.7 |
| 20260503030055 | 45 | 0 | 0.0 | 2.6 | 0.00 | 0.00 | 0.00 | 60 | 1012.9 |
| 20260503024549 | 45 | 0 | 0.0 | 0.9 | 0.00 | 0.00 | 0.00 | 61 | 1012.9 |
| 20260503023053 | 45 | 194 | 0.0 | 0.9 | 0.00 | 0.00 | 0.00 | 61 | 1013.0 |
| 20260503021550 | 45 | 148 | 0.0 | 2.6 | 0.00 | 0.00 | 0.00 | 61 | 1013.0 |
| 20260503020049 | 46 | 0 | 0.0 | 0.9 | 0.00 | 0.00 | 0.00 | 60 | 1013.0 |
| 20260503014548 | 46 | 0 | 0.0 | 1.7 | 0.00 | 0.00 | 0.00 | 58 | 1012.8 |
| 20260503013050 | 47 | 0 | 0.0 | 0.9 | 0.00 | 0.00 | 0.00 | 56 | 1012.6 |
| 20260503011546 | 49 | 0 | 0.0 | 1.7 | 0.00 | 0.00 | 0.00 | 51 | 1012.6 |
| 20260503010052 | 52 | 210 | 0.0 | 0.9 | 0.00 | 0.00 | 0.00 | 40 | 1012.7 |
| 20260503004550 | 53 | 0 | 0.0 | 3.5 | 0.00 | 0.00 | 0.00 | 41 | 1012.7 |
| 20260503003053 | 54 | 250 | 0.0 | 5.2 | 0.00 | 0.00 | 0.00 | 38 | 1012.7 |
| 20260503001556 | 54 | 269 | 0.9 | 7.0 | 0.00 | 0.00 | 0.00 | 38 | 1012.7 |
| 20260503000050 | 54 | 228 | 0.0 | 4.3 | 0.00 | 0.00 | 0.00 | 39 | 1012.8 |
| 20260502234558 | 54 | 0 | 0.0 | 4.3 | 0.00 | 0.00 | 0.00 | 38 | 1012.9 |
| 20260502233056 | 54 | 0 | 0.0 | 4.3 | 0.00 | 0.00 | 0.00 | 37 | 1013.1 |
| 20260502231601 | 55 | 277 | 1.7 | 5.2 | 0.00 | 0.00 | 0.00 | 37 | 1013.1 |
| 20260502230052 | 55 | 291 | 1.7 | 6.1 | 0.00 | 0.00 | 0.00 | 36 | 1013.3 |
| 20260502224550 | 55 | 0 | 0.0 | 5.2 | 0.00 | 0.00 | 0.00 | 36 | 1013.5 |
| 20260502223054 | 56 | 272 | 0.9 | 5.2 | 0.00 | 0.00 | 0.00 | 35 | 1013.6 |
| 20260502221554 | 55 | 212 | 1.7 | 5.2 | 0.00 | 0.00 | 0.00 | 37 | 1013.7 |
| 20260502220058 | 55 | 0 | 1.7 | 6.1 | 0.00 | 0.00 | 0.00 | 36 | 1013.8 |
| 20260502214557 | 57 | 311 | 2.6 | 4.3 | 0.00 | 0.00 | 0.00 | 35 | 1013.8 |
| 20260502213100 | 56 | 269 | 0.9 | 6.1 | 0.00 | 0.00 | 0.00 | 36 | 1014.0 |
| 20260502211549 | 57 | 328 | 1.7 | 6.1 | 0.00 | 0.00 | 0.00 | 38 | 1014.0 |
| 20260502210045 | 55 | 300 | 0.9 | 7.0 | 0.00 | 0.00 | 0.00 | 36 | 1014.1 |